Time;durP1;ratioP1;P1;durP2;ratioP2;P2;SDS_P1;SDS_P2;PMS_P1;PMS_P2;Temp;Humidity;BMP_temperature;BMP_pressure;BME280_temperature;BME280_humidity;BME280_pressure;Samples;Min_cycle;Max_cycle;Signal;HPM_P1;HPM_P2
2024/01/18 00:21:23;;;;;;;11.85;5.38;;;;;;;-1.78;100.00;99267.59;4935219;29;20103;-89
2024/01/18 00:36:23;;;;;;;10.57;5.20;;;;;;;-1.58;100.00;99322.91;5064740;23;20067;-89
2024/01/18 00:59:34;;;;;;;10.30;5.22;;;;;;;-1.82;100.00;99309.13;4936431;29;20493;-89
2024/01/18 01:05:22;;;;;;;12.77;5.70;;;;;;;-1.68;100.00;99336.34;4934009;29;20058;-89
2024/01/18 04:28:00;;;;;;;10.77;5.15;;;;;;;-2.42;100.00;99459.19;5335928;23;20460;-88
2024/01/18 04:31:22;;;;;;;12.10;5.15;;;;;;;-2.45;100.00;99456.59;4941372;28;20066;-88
2024/01/18 04:52:46;;;;;;;10.73;5.10;;;;;;;-2.70;100.00;99496.00;4933898;29;20055;-88
2024/01/18 04:55:32;;;;;;;10.60;5.10;;;;;;;-2.98;100.00;99467.56;4895129;29;20033;-87
2024/01/18 04:58:13;;;;;;;9.88;4.82;;;;;;;-2.89;100.00;99492.28;4858351;29;20041;-87
2024/01/18 10:54:20;;;;;;;1.95;1.67;;;;;;;0.43;100.00;100020.91;5184594;23;20415;-88
2024/01/18 10:56:45;;;;;;;2.22;1.70;;;;;;;0.54;100.00;100035.50;4975791;28;20038;-91
2024/01/18 10:59:13;;;;;;;1.48;1.38;;;;;;;0.63;100.00;100034.75;4976450;28;20023;-85
2024/01/18 11:15:17;;;;;;;2.08;1.80;;;;;;;1.04;100.00;100059.94;4933712;29;20047;-85
2024/01/18 11:18:00;;;;;;;1.70;1.60;;;;;;;1.02;100.00;100046.28;4934749;29;20472;-84
2024/01/18 11:24:43;;;;;;;2.53;1.60;;;;;;;1.30;100.00;100074.66;4930829;29;20230;-83
2024/01/18 11:47:45;;;;;;;2.13;1.90;;;;;;;1.61;98.70;100116.75;4920130;29;20052;-93
2024/01/18 11:55:17;;;;;;;5.65;2.53;;;;;;;1.73;95.18;100115.16;4935386;29;20384;-94
2024/01/18 11:57:45;;;;;;;5.68;2.80;;;;;;;1.76;90.27;100116.03;4937611;29;20024;-93
2024/01/18 12:00:11;;;;;;;4.85;2.72;;;;;;;1.81;91.94;100128.88;4936569;29;20034;-92
2024/01/18 12:02:37;;;;;;;7.20;2.70;;;;;;;1.85;90.48;100128.94;4937188;29;20024;-94
2024/01/18 12:05:04;;;;;;;5.07;2.53;;;;;;;1.88;90.16;100127.22;4937220;29;20024;-93
2024/01/18 12:07:30;;;;;;;6.85;2.63;;;;;;;1.91;90.83;100135.81;4936846;29;20387;-93
2024/01/18 12:09:57;;;;;;;3.70;2.50;;;;;;;1.90;90.48;100121.31;4938485;29;20047;-93
2024/01/18 12:12:22;;;;;;;5.65;2.30;;;;;;;1.98;91.69;100140.13;4941959;29;20057;-93
2024/01/18 12:14:48;;;;;;;6.00;2.30;;;;;;;2.04;91.20;100147.00;4953556;29;20165;-93
2024/01/18 12:17:14;;;;;;;5.78;2.47;;;;;;;2.09;89.79;100149.59;4936449;29;20047;-94
2024/01/18 12:19:41;;;;;;;3.45;2.10;;;;;;;2.11;90.35;100153.03;4936646;29;20031;-93
2024/01/18 12:22:18;;;;;;;3.85;2.47;;;;;;;2.16;90.37;100156.47;4925383;28;20130;-90
2024/01/18 12:24:48;;;;;;;4.03;2.28;;;;;;;2.18;91.07;100162.47;4936536;29;20024;-93
2024/01/18 12:27:14;;;;;;;3.20;2.20;;;;;;;2.21;91.46;100167.63;4934449;29;20031;-86
2024/01/18 12:29:40;;;;;;;4.85;2.40;;;;;;;2.24;91.81;100161.66;4935070;29;20039;-88
2024/01/18 12:32:08;;;;;;;3.70;2.10;;;;;;;2.26;90.88;100165.09;4934874;29;20444;-87
2024/01/18 12:34:34;;;;;;;7.38;2.40;;;;;;;2.26;91.63;100162.53;4934427;29;20413;-86
2024/01/18 12:37:00;;;;;;;5.38;2.05;;;;;;;2.33;91.11;100168.56;4934995;29;20126;-86
2024/01/18 12:39:25;;;;;;;2.22;1.90;;;;;;;2.38;92.57;100172.00;4935710;29;20123;-91
2024/01/18 12:41:52;;;;;;;2.28;1.80;;;;;;;2.43;92.52;100166.06;4934779;29;20054;-90
2024/01/18 12:44:18;;;;;;;4.38;1.90;;;;;;;2.52;92.50;100165.28;4935832;29;20375;-91
2024/01/18 12:46:46;;;;;;;4.22;1.77;;;;;;;2.56;92.49;100169.59;4935723;29;20043;-87
2024/01/18 12:49:12;;;;;;;2.70;1.50;;;;;;;2.55;90.88;100167.00;4934996;29;20027;-91
2024/01/18 12:51:37;;;;;;;4.43;1.92;;;;;;;2.47;91.60;100157.56;4935941;29;20047;-91
2024/01/18 12:54:03;;;;;;;2.20;1.73;;;;;;;2.53;92.04;100172.13;4935293;29;20472;-92
2024/01/18 12:56:29;;;;;;;2.55;1.80;;;;;;;2.58;91.82;100180.72;4935686;29;20032;-90
2024/01/18 12:58:54;;;;;;;2.20;1.63;;;;;;;2.56;92.74;100172.16;4938962;29;20428;-91
2024/01/18 13:01:28;;;;;;;2.28;1.55;;;;;;;2.62;92.10;100184.16;4939421;29;20102;-90
2024/01/18 13:04:08;;;;;;;2.33;1.67;;;;;;;2.63;91.98;100184.16;4939469;29;20035;-91
2024/01/18 13:06:34;;;;;;;2.78;1.73;;;;;;;2.65;92.57;100193.56;4940108;29;20408;-91
2024/01/18 13:09:00;;;;;;;2.35;1.40;;;;;;;2.68;92.38;100186.72;4939621;29;20043;-91
2024/01/18 13:11:25;;;;;;;1.63;1.53;;;;;;;2.66;90.48;100187.56;4939298;29;20028;-92
2024/01/18 13:13:51;;;;;;;3.08;1.50;;;;;;;2.69;91.63;100192.72;4939975;29;20027;-91
2024/01/18 13:16:16;;;;;;;1.85;1.40;;;;;;;2.70;91.98;100202.13;4940044;29;20125;-91
2024/01/18 13:18:41;;;;;;;3.83;1.50;;;;;;;2.71;89.28;100208.94;4939561;29;20476;-92
2024/01/18 13:21:07;;;;;;;2.60;1.45;;;;;;;2.75;92.12;100211.56;4940220;29;20039;-92
2024/01/18 13:23:32;;;;;;;5.15;1.40;;;;;;;2.73;91.28;100218.38;4939917;29;20511;-92
2024/01/18 13:25:57;;;;;;;8.10;1.60;;;;;;;2.73;88.13;100220.06;4939796;29;20031;-91
2024/01/18 13:28:22;;;;;;;3.92;1.63;;;;;;;2.78;89.30;100233.78;4939283;29;20042;-92
2024/01/18 13:30:48;;;;;;;3.97;1.67;;;;;;;2.72;89.23;100238.84;4938973;29;20040;-92
2024/01/18 13:33:13;;;;;;;1.63;1.40;;;;;;;2.57;89.26;100219.97;4939726;29;20355;-91
2024/01/18 13:35:38;;;;;;;5.85;1.58;;;;;;;2.52;87.46;100246.41;4939040;29;20096;-91
2024/01/18 13:38:04;;;;;;;4.22;1.60;;;;;;;2.38;86.02;100246.28;4938640;29;20031;-91
2024/01/18 13:40:30;;;;;;;6.07;1.43;;;;;;;2.37;87.62;100247.13;4939393;29;20102;-91
2024/01/18 13:42:55;;;;;;;4.82;1.60;;;;;;;2.32;87.80;100254.75;4939032;29;20422;-90
2024/01/18 13:45:23;;;;;;;3.97;1.63;;;;;;;2.33;88.98;100261.59;4938298;29;20052;-92
2024/01/18 13:47:50;;;;;;;3.60;1.50;;;;;;;2.32;90.26;100272.69;4939087;29;20032;-92
2024/01/18 13:50:15;;;;;;;2.00;1.10;;;;;;;2.39;90.49;100281.28;4939548;29;20027;-92
2024/01/18 13:52:42;;;;;;;2.92;1.10;;;;;;;2.38;91.01;100279.56;4938984;29;20031;-92
2024/01/18 13:55:07;;;;;;;3.45;1.30;;;;;;;2.40;90.87;100283.00;4939326;29;20483;-93
2024/01/18 13:57:32;;;;;;;4.27;1.40;;;;;;;2.40;90.24;100283.00;4938927;29;20044;-94
2024/01/18 13:59:58;;;;;;;6.57;1.55;;;;;;;2.39;90.55;100296.66;4939156;29;20055;-94
2024/01/18 14:02:26;;;;;;;3.65;1.20;;;;;;;2.36;91.33;100301.78;4939585;29;20079;-91
2024/01/18 14:04:51;;;;;;;1.55;1.45;;;;;;;2.35;90.74;100305.16;4939620;29;20443;-95
2024/01/18 14:07:16;;;;;;;1.40;0.85;;;;;;;2.31;92.27;100307.69;4939295;29;20032;-93
2024/01/18 14:09:42;;;;;;;2.08;1.10;;;;;;;2.29;92.00;100314.50;4937943;29;20614;-94
2024/01/18 14:12:08;;;;;;;2.13;0.90;;;;;;;2.28;92.53;100311.94;4939479;29;20032;-95
2024/01/18 14:14:33;;;;;;;0.97;0.87;;;;;;;2.34;92.46;100332.47;4940234;29;20032;-95
2024/01/18 14:16:58;;;;;;;1.58;0.93;;;;;;;2.32;92.74;100326.47;4939942;29;20107;-96
2024/01/18 14:19:25;;;;;;;0.60;0.60;;;;;;;2.40;93.05;100341.91;4938843;29;20471;-87
2024/01/18 14:21:50;;;;;;;1.00;0.90;;;;;;;2.40;93.25;100337.66;4946642;29;20024;-96
2024/01/18 14:24:16;;;;;;;0.80;0.80;;;;;;;2.41;93.59;100339.38;4946214;29;20369;-96
2024/01/18 14:26:41;;;;;;;0.95;0.77;;;;;;;2.38;93.54;100339.34;4941791;29;20045;-96
2024/01/18 14:29:10;;;;;;;1.50;0.73;;;;;;;2.39;93.69;100355.56;4939143;29;20138;-94
2024/01/18 14:34:34;;;;;;;2.75;1.10;;;;;;;2.16;92.58;100354.47;4939844;29;20070;-95
2024/01/18 14:36:59;;;;;;;1.33;0.85;;;;;;;2.08;93.39;100355.22;4939406;29;20138;-96
2024/01/18 14:39:25;;;;;;;1.48;0.90;;;;;;;1.98;93.86;100352.56;4939955;29;20039;-96
2024/01/18 14:41:50;;;;;;;1.25;0.90;;;;;;;1.95;93.74;100361.91;4940631;29;20030;-91
2024/01/18 14:44:32;;;;;;;1.38;0.75;;;;;;;1.87;94.41;100371.16;4940830;29;20020;-94
2024/01/18 14:46:59;;;;;;;1.15;0.65;;;;;;;1.81;94.78;100370.28;4942923;29;20051;-95
2024/01/18 14:49:43;;;;;;;0.80;0.70;;;;;;;1.84;94.93;100389.91;4945401;29;20102;-96
2024/01/18 14:52:10;;;;;;;1.00;0.57;;;;;;;1.84;95.14;100405.25;4965235;29;20051;-96
2024/01/18 14:54:36;;;;;;;0.40;0.40;;;;;;;1.79;95.13;100407.75;4966957;28;20043;-85
2024/01/18 14:57:20;;;;;;;0.40;0.40;;;;;;;1.68;94.76;100405.06;4970864;29;20042;-95
2024/01/18 14:59:51;;;;;;;2.17;0.88;;;;;;;1.57;95.25;100405.75;4964771;29;20113;-91
2024/01/18 15:02:20;;;;;;;1.48;1.00;;;;;;;1.56;95.30;100417.69;4958570;29;20122;-95
2024/01/18 15:04:45;;;;;;;1.17;1.00;;;;;;;1.46;95.67;100408.16;4957428;29;20023;-96
2024/01/18 15:07:11;;;;;;;1.08;0.90;;;;;;;1.53;95.19;100441.50;4957194;29;20020;-95
2024/01/18 15:09:37;;;;;;;0.93;0.93;;;;;;;1.51;95.27;100445.75;4957305;29;20038;-95
2024/01/18 15:12:23;;;;;;;1.08;0.80;;;;;;;1.45;94.74;100443.09;4956696;29;20110;-95
2024/01/18 15:14:49;;;;;;;1.20;1.02;;;;;;;1.32;95.70;100434.38;4956467;29;20118;-95
2024/01/18 15:17:15;;;;;;;1.30;1.20;;;;;;;1.33;95.39;100442.88;4956649;29;20474;-94
2024/01/18 15:19:40;;;;;;;0.80;0.80;;;;;;;1.37;95.66;100463.41;4956377;29;20364;-95
2024/01/18 15:22:05;;;;;;;2.70;1.05;;;;;;;1.23;95.63;100458.06;4956640;28;20042;-95
2024/01/18 15:24:31;;;;;;;1.05;0.80;;;;;;;1.22;95.98;100466.59;4957215;29;20395;-95
2024/01/18 15:26:56;;;;;;;1.10;1.00;;;;;;;1.13;95.93;100465.56;4959413;29;20074;-96
2024/01/18 15:32:51;;;;;;;0.75;0.75;;;;;;;1.10;96.46;100488.53;4956205;29;20038;-95
2024/01/18 15:35:17;;;;;;;1.15;0.80;;;;;;;0.96;96.91;100490.84;4956641;29;20016;-95
2024/01/18 15:38:09;;;;;;;0.70;0.70;;;;;;;1.00;97.16;100506.25;4956437;29;20027;-96
2024/01/18 15:40:34;;;;;;;0.68;0.68;;;;;;;0.92;97.46;100511.22;4958647;29;20027;-94
2024/01/18 15:42:59;;;;;;;0.50;0.50;;;;;;;0.83;97.41;100508.50;4959948;29;20054;-95
2024/01/18 15:45:44;;;;;;;0.60;0.60;;;;;;;0.89;97.74;100528.19;4956096;29;20025;-94
2024/01/18 15:48:09;;;;;;;0.57;0.57;;;;;;;0.82;98.05;100531.44;4956394;29;20027;-94
2024/01/18 15:50:35;;;;;;;1.17;0.77;;;;;;;0.82;97.93;100542.53;4955191;29;20110;-95
2024/01/18 15:53:16;;;;;;;0.40;0.40;;;;;;;0.73;97.73;100545.75;4955833;28;20034;-95
2024/01/18 15:55:41;;;;;;;0.40;0.40;;;;;;;0.63;97.83;100546.41;4957417;29;20027;-95
2024/01/18 15:58:06;;;;;;;0.60;0.60;;;;;;;0.55;98.23;100550.50;4956636;29;20037;-95
2024/01/18 16:00:32;;;;;;;0.40;0.40;;;;;;;0.43;98.24;100546.84;4957081;29;20065;-96
2024/01/18 16:02:57;;;;;;;0.40;0.40;;;;;;;0.50;98.47;100575.94;4957176;29;20046;-95
2024/01/18 16:05:41;;;;;;;0.60;0.45;;;;;;;0.46;98.49;100585.19;4956140;29;20426;-95
2024/01/18 16:08:09;;;;;;;0.95;0.73;;;;;;;0.43;99.41;100595.38;4955912;29;20539;-95
2024/01/18 16:10:34;;;;;;;0.82;0.70;;;;;;;0.29;99.36;100587.38;4956476;29;20031;-94
2024/01/18 16:13:01;;;;;;;1.98;0.77;;;;;;;0.21;99.06;100594.00;4956175;29;20030;-95
2024/01/18 16:15:26;;;;;;;1.05;0.93;;;;;;;0.20;99.09;100606.75;4956063;29;20110;-95
2024/01/18 16:17:52;;;;;;;1.48;0.90;;;;;;;0.12;99.40;100606.56;4956100;29;20063;-95
2024/01/18 16:20:33;;;;;;;1.35;0.63;;;;;;;0.08;99.16;100618.38;4956120;29;20023;-94
2024/01/18 16:22:59;;;;;;;0.70;0.70;;;;;;;0.05;99.42;100628.50;4955928;29;20027;-95
2024/01/18 16:25:24;;;;;;;0.80;0.80;;;;;;;0.02;99.46;100636.09;4955864;29;20034;-94
2024/01/18 16:27:49;;;;;;;0.90;0.90;;;;;;;-0.07;99.35;100644.41;4955439;29;20070;-94
2024/01/18 16:30:15;;;;;;;0.73;0.73;;;;;;;-0.15;99.52;100650.97;4955750;29;20067;-94
2024/01/18 16:32:40;;;;;;;1.38;1.17;;;;;;;-0.34;99.66;100639.47;4954888;28;20057;-94
2024/01/18 16:35:06;;;;;;;1.25;1.05;;;;;;;-0.36;99.69;100651.31;4955493;29;20375;-94
2024/01/18 16:37:31;;;;;;;1.00;0.90;;;;;;;-0.40;99.98;100658.00;4955767;29;20153;-94
2024/01/18 16:39:56;;;;;;;1.48;1.30;;;;;;;-0.44;100.00;100668.06;4955421;29;20019;-95
2024/01/18 16:42:54;;;;;;;1.30;1.20;;;;;;;-0.44;99.96;100680.81;4955520;29;20490;-93
2024/01/18 16:45:19;;;;;;;1.88;1.40;;;;;;;-0.51;99.99;100688.31;4957263;29;20029;-94
2024/01/18 16:47:44;;;;;;;1.00;1.00;;;;;;;-0.57;100.00;100688.16;4956001;29;20106;-93
2024/01/18 16:50:18;;;;;;;1.77;1.40;;;;;;;-0.62;100.00;100702.44;4955884;29;20070;-94
2024/01/18 16:52:43;;;;;;;1.70;1.58;;;;;;;-0.65;100.00;100697.25;4955589;29;20023;-93
2024/01/18 16:55:09;;;;;;;1.83;1.73;;;;;;;-0.71;100.00;100705.56;4955320;29;20082;-93
2024/01/18 16:57:34;;;;;;;2.75;2.03;;;;;;;-0.78;100.00;100706.25;4956240;29;20029;-93
2024/01/18 17:00:26;;;;;;;2.22;1.90;;;;;;;-0.78;100.00;100716.44;4955699;29;20098;-93
2024/01/18 17:02:51;;;;;;;3.00;1.80;;;;;;;-0.83;100.00;100720.50;4955450;29;20114;-93
2024/01/18 17:05:16;;;;;;;2.55;2.00;;;;;;;-0.88;100.00;100725.47;4955767;29;20109;-93
2024/01/18 17:07:42;;;;;;;2.50;1.90;;;;;;;-0.87;100.00;100737.41;4955561;29;20151;-93
2024/01/18 17:10:07;;;;;;;2.90;2.25;;;;;;;-0.89;100.00;100738.19;4954692;29;20039;-92
2024/01/18 17:12:33;;;;;;;3.03;2.17;;;;;;;-0.91;100.00;100747.47;4955830;29;20142;-92
2024/01/18 17:14:59;;;;;;;2.45;2.10;;;;;;;-0.98;100.00;100741.31;4956086;29;20379;-92
2024/01/18 17:17:25;;;;;;;2.60;1.83;;;;;;;-0.97;100.00;100750.69;4955477;29;20033;-92
2024/01/18 17:19:50;;;;;;;2.28;1.80;;;;;;;-1.01;100.00;100753.94;4955542;29;20156;-92
2024/01/18 17:22:16;;;;;;;2.10;1.90;;;;;;;-1.04;100.00;100756.41;4955080;29;20133;-92
2024/01/18 17:24:50;;;;;;;2.10;1.90;;;;;;;-1.10;100.00;100757.94;4956062;29;20086;-93
2024/01/18 17:27:16;;;;;;;2.17;1.95;;;;;;;-1.13;100.00;100760.44;4955013;29;20031;-90
2024/01/18 17:29:43;;;;;;;3.27;2.00;;;;;;;-1.14;100.00;100768.88;4955248;29;20039;-88
2024/01/18 17:32:08;;;;;;;3.00;2.10;;;;;;;-1.15;100.00;100782.44;4955481;29;20035;-91
2024/01/18 17:34:35;;;;;;;2.25;1.85;;;;;;;-1.16;100.00;100787.44;4955126;29;20027;-91
2024/01/18 17:37:00;;;;;;;2.45;1.90;;;;;;;-1.22;100.00;100787.28;4955025;29;20034;-91
2024/01/18 17:39:26;;;;;;;2.42;1.90;;;;;;;-1.23;100.00;100794.03;4955174;29;20039;-92
2024/01/18 17:41:52;;;;;;;2.22;1.90;;;;;;;-1.26;100.00;100799.03;4955244;29;20435;-90
2024/01/18 17:44:21;;;;;;;2.05;1.85;;;;;;;-1.29;100.00;100797.25;4955249;28;20114;-90
2024/01/18 17:46:51;;;;;;;1.90;1.67;;;;;;;-1.32;100.00;100801.38;4958446;29;20027;-90
2024/01/18 17:49:18;;;;;;;2.00;1.80;;;;;;;-1.36;100.00;100809.75;4958155;29;20455;-90
2024/01/18 17:51:43;;;;;;;2.28;1.80;;;;;;;-1.38;100.00;100806.28;4957850;29;20403;-90
2024/01/18 17:54:09;;;;;;;2.22;1.85;;;;;;;-1.42;100.00;100811.25;4958210;29;20097;-90
2024/01/18 17:56:34;;;;;;;2.10;1.85;;;;;;;-1.44;100.00;100812.88;4958985;29;20035;-90
2024/01/18 17:58:59;;;;;;;1.75;1.65;;;;;;;-1.44;100.00;100819.66;4958351;29;20471;-90
2024/01/18 18:01:24;;;;;;;2.00;1.80;;;;;;;-1.47;100.00;100825.53;4958470;29;20038;-90
2024/01/18 18:03:50;;;;;;;2.10;1.90;;;;;;;-1.51;100.00;100825.34;4958040;29;20055;-89
2024/01/18 18:06:16;;;;;;;2.00;1.83;;;;;;;-1.53;100.00;100824.47;4957984;29;20494;-90
2024/01/18 18:08:41;;;;;;;2.10;1.90;;;;;;;-1.54;100.00;100838.84;4972817;23;20467;-90
2024/01/18 18:11:07;;;;;;;2.10;1.73;;;;;;;-1.57;100.00;100836.19;4957688;29;20118;-89
2024/01/18 18:13:34;;;;;;;2.50;1.83;;;;;;;-1.62;100.00;100832.63;4958070;29;20046;-89
2024/01/18 18:15:59;;;;;;;2.05;1.90;;;;;;;-1.64;100.00;100845.31;4958164;29;20086;-89
2024/01/18 18:18:25;;;;;;;2.60;1.90;;;;;;;-1.65;100.00;100842.72;4957910;29;20027;-90
2024/01/18 18:20:50;;;;;;;2.50;1.90;;;;;;;-1.70;100.00;100842.56;4957729;29;20024;-89
2024/01/18 18:23:15;;;;;;;1.80;1.70;;;;;;;-1.77;100.00;100850.78;4958185;29;20106;-89
2024/01/18 18:25:41;;;;;;;1.73;1.60;;;;;;;-1.75;100.00;100855.13;4958670;29;20055;-89
2024/01/18 18:28:06;;;;;;;2.47;1.80;;;;;;;-1.81;100.00;100854.03;4957929;29;20061;-89
2024/01/18 18:30:31;;;;;;;2.60;1.90;;;;;;;-1.83;100.00;100866.72;4959411;29;20027;-89
2024/01/18 18:32:56;;;;;;;2.45;1.90;;;;;;;-1.86;100.00;100876.75;4958022;29;20482;-88
2024/01/18 18:35:22;;;;;;;1.80;1.70;;;;;;;-1.92;100.00;100877.41;4957994;29;20085;-89
2024/01/18 18:37:47;;;;;;;2.10;1.90;;;;;;;-1.97;100.00;100878.06;4958791;29;20057;-88
2024/01/18 18:40:12;;;;;;;1.80;1.70;;;;;;;-2.05;100.00;100865.94;4957624;29;20027;-88
2024/01/18 18:42:39;;;;;;;2.30;1.80;;;;;;;-2.08;100.00;100872.56;4958635;29;20066;-89
2024/01/18 18:45:04;;;;;;;2.35;2.03;;;;;;;-2.02;100.00;100882.97;4959578;29;20106;-89
2024/01/18 18:47:30;;;;;;;3.05;2.20;;;;;;;-2.04;100.00;100895.66;4960015;29;20103;-88
2024/01/18 18:49:55;;;;;;;2.42;2.10;;;;;;;-2.04;100.00;100899.84;4961781;29;20035;-89
2024/01/18 18:52:20;;;;;;;2.40;2.00;;;;;;;-2.09;100.00;100904.78;4966407;29;20034;-88
2024/01/18 18:54:46;;;;;;;3.08;2.30;;;;;;;-2.11;100.00;100915.69;4959202;28;20432;-88
2024/01/18 18:57:11;;;;;;;2.72;2.10;;;;;;;-2.14;100.00;100915.56;4953858;29;20248;-88
2024/01/18 18:59:36;;;;;;;3.15;2.40;;;;;;;-2.16;100.00;100923.16;4954358;29;20023;-88
2024/01/18 19:02:01;;;;;;;3.58;2.40;;;;;;;-2.18;100.00;100925.63;4952902;28;20577;-88
2024/01/18 19:04:27;;;;;;;3.45;2.40;;;;;;;-2.24;100.00;100927.94;4954201;29;20027;-88
2024/01/18 19:06:52;;;;;;;2.47;2.20;;;;;;;-2.24;100.00;100942.31;4955202;29;20020;-88
2024/01/18 19:09:17;;;;;;;3.75;2.15;;;;;;;-2.29;100.00;100937.06;4954412;29;20073;-88
2024/01/18 19:11:43;;;;;;;2.92;2.20;;;;;;;-2.34;100.00;100941.13;4954805;29;20491;-88
2024/01/18 19:14:08;;;;;;;3.00;2.25;;;;;;;-2.37;100.00;100946.06;4954480;29;20502;-88
2024/01/18 19:16:33;;;;;;;2.30;2.10;;;;;;;-2.36;100.00;100953.75;4954606;29;20022;-88
2024/01/18 19:18:58;;;;;;;2.78;2.33;;;;;;;-2.42;100.00;100961.16;4954268;29;20054;-88
2024/01/18 19:21:24;;;;;;;2.10;2.00;;;;;;;-2.42;100.00;100963.69;4954060;29;20106;-88
2024/01/18 19:23:49;;;;;;;2.42;2.10;;;;;;;-2.44;100.00;100970.38;4954377;29;20022;-89
2024/01/18 19:26:14;;;;;;;2.30;2.10;;;;;;;-2.49;100.00;100974.44;4955274;29;20159;-88
2024/01/18 19:28:46;;;;;;;2.00;1.90;;;;;;;-2.59;100.00;100965.56;4954531;29;20047;-93
2024/01/18 19:31:11;;;;;;;3.40;2.20;;;;;;;-2.51;100.00;100988.75;4956167;29;20490;-90
2024/01/18 19:33:36;;;;;;;2.20;2.00;;;;;;;-2.54;100.00;100994.56;4968190;23;20079;-90
2024/01/18 19:36:02;;;;;;;2.17;2.00;;;;;;;-2.56;100.00;100995.28;4958022;29;20117;-90
2024/01/18 19:38:27;;;;;;;2.40;2.20;;;;;;;-2.59;100.00;101002.81;4955494;29;20023;-90
2024/01/18 19:40:54;;;;;;;2.00;1.90;;;;;;;-2.67;100.00;101005.03;4956233;29;20034;-90
2024/01/18 19:43:19;;;;;;;3.35;2.08;;;;;;;-2.70;100.00;101007.44;4955156;29;20142;-89
2024/01/18 19:45:45;;;;;;;2.00;1.80;;;;;;;-2.67;100.00;101020.28;4955571;29;20062;-90
2024/01/18 19:48:10;;;;;;;2.30;2.10;;;;;;;-2.70;100.00;101022.69;4954513;29;20360;-89
2024/01/18 19:50:35;;;;;;;2.20;2.00;;;;;;;-2.74;100.00;101024.25;4955176;29;20023;-89
2024/01/18 19:53:02;;;;;;;2.53;2.10;;;;;;;-2.76;100.00;101030.91;4955704;29;20105;-89
2024/01/18 19:55:27;;;;;;;2.30;2.10;;;;;;;-2.78;100.00;101040.16;4955333;29;20031;-89
2024/01/18 19:57:53;;;;;;;2.80;2.30;;;;;;;-2.83;100.00;101031.47;4954855;29;20031;-89
2024/01/18 20:00:19;;;;;;;2.08;1.88;;;;;;;-2.87;100.00;101039.75;4955321;29;20110;-90
2024/01/18 20:02:45;;;;;;;2.28;1.95;;;;;;;-2.89;100.00;101047.31;4955190;29;20020;-89
2024/01/18 20:05:11;;;;;;;2.75;2.20;;;;;;;-2.90;100.00;101053.22;4954743;29;20362;-89
2024/01/18 20:07:36;;;;;;;2.45;2.20;;;;;;;-2.91;100.00;101059.09;4954545;28;20027;-89
2024/01/18 20:10:02;;;;;;;2.72;2.28;;;;;;;-2.95;100.00;101062.28;4954861;29;20023;-89
2024/01/18 20:12:29;;;;;;;2.63;2.30;;;;;;;-2.99;100.00;101062.97;4954752;29;20024;-89
2024/01/18 20:14:57;;;;;;;3.65;2.40;;;;;;;-2.99;100.00;101080.75;4954892;29;20078;-89
2024/01/18 20:17:23;;;;;;;2.75;2.25;;;;;;;-3.01;100.00;101079.81;4954606;29;20363;-89
2024/01/18 20:19:49;;;;;;;2.50;2.30;;;;;;;-3.09;100.00;101094.69;4954410;29;20047;-90
2024/01/18 20:22:14;;;;;;;3.90;2.50;;;;;;;-3.11;100.00;101097.19;4954783;29;20023;-91
2024/01/18 20:24:43;;;;;;;3.85;2.58;;;;;;;-3.12;100.00;101112.31;4954075;29;20034;-89
2024/01/18 20:27:15;;;;;;;4.30;3.08;;;;;;;-3.16;100.00;101100.31;4954431;29;20506;-89
2024/01/18 20:29:42;;;;;;;7.40;3.83;;;;;;;-3.18;100.00;101096.84;4954796;29;20024;-89
2024/01/18 20:32:07;;;;;;;7.93;3.83;;;;;;;-3.20;100.00;101106.91;4957962;29;20031;-88
2024/01/18 20:34:33;;;;;;;7.68;4.15;;;;;;;-3.16;100.00;101107.94;4955054;29;20467;-89
2024/01/18 20:36:59;;;;;;;7.53;4.28;;;;;;;-3.26;100.00;101101.56;4954710;29;20177;-89
2024/01/18 20:39:25;;;;;;;8.27;4.10;;;;;;;-3.28;100.00;101104.03;4954054;29;20479;-89
2024/01/18 20:41:50;;;;;;;8.30;4.47;;;;;;;-3.23;100.00;101116.06;4954401;29;20051;-89
2024/01/18 20:44:15;;;;;;;7.90;4.40;;;;;;;-3.26;100.00;101117.66;4954126;29;20031;-89
2024/01/18 20:46:41;;;;;;;7.45;3.95;;;;;;;-3.32;100.00;101107.22;4953537;29;20038;-89
2024/01/18 20:49:07;;;;;;;6.65;3.85;;;;;;;-3.31;100.00;101134.34;4954326;29;20491;-89
2024/01/18 20:51:32;;;;;;;7.10;3.90;;;;;;;-3.44;100.00;101117.69;4954797;29;20483;-89
2024/01/18 20:53:58;;;;;;;5.97;3.80;;;;;;;-3.34;100.00;101146.91;4954355;29;20113;-90
2024/01/18 20:56:24;;;;;;;7.70;3.90;;;;;;;-3.37;100.00;101135.72;4955123;29;20029;-89
2024/01/18 20:58:49;;;;;;;7.80;3.90;;;;;;;-3.35;100.00;101149.38;4955523;29;20459;-89
2024/01/18 21:01:15;;;;;;;7.63;4.07;;;;;;;-3.36;100.00;101147.63;4953790;29;20023;-89
2024/01/18 21:03:40;;;;;;;7.30;4.15;;;;;;;-3.41;100.00;101140.66;4955213;29;20027;-89
2024/01/18 21:06:06;;;;;;;8.20;4.30;;;;;;;-3.35;100.00;101149.38;4954392;29;20497;-89
2024/01/18 21:08:33;;;;;;;8.27;4.13;;;;;;;-3.36;100.00;101151.03;4954876;29;20058;-90
2024/01/18 21:10:58;;;;;;;;;;;;;;;-3.37;100.00;101156.91;4955636;29;20027;-89
2024/01/18 21:13:23;;;;;;;6.63;3.80;;;;;;;-3.39;100.00;101157.63;4954896;29;19915;-89
2024/01/18 21:15:48;;;;;;;6.60;4.10;;;;;;;-3.43;100.00;101157.47;4953238;28;20242;-88
2024/01/18 21:18:14;;;;;;;7.70;4.53;;;;;;;-3.41;100.00;101162.66;4955333;28;20062;-89
2024/01/18 21:20:39;;;;;;;8.98;4.75;;;;;;;-3.46;100.00;101154.81;4959339;29;20055;-90
2024/01/18 21:23:04;;;;;;;8.85;4.60;;;;;;;-3.43;100.00;101166.78;4958708;29;20031;-90
2024/01/18 21:25:29;;;;;;;9.07;4.05;;;;;;;-3.42;100.00;101171.91;4958696;29;20534;-90
2024/01/18 21:27:55;;;;;;;6.03;3.75;;;;;;;-3.42;100.00;101178.66;4958664;29;20020;-90
2024/01/18 21:30:20;;;;;;;7.35;4.22;;;;;;;-3.45;100.00;101173.44;4958426;29;20387;-90
2024/01/18 21:32:45;;;;;;;7.03;3.75;;;;;;;-3.47;100.00;101178.47;4958674;29;20178;-90
2024/01/18 21:35:11;;;;;;;6.82;3.90;;;;;;;-3.47;100.00;101187.72;4958825;29;20091;-90
2024/01/18 21:37:36;;;;;;;6.47;4.00;;;;;;;-3.48;100.00;101193.59;4958817;29;20094;-90
2024/01/18 21:40:02;;;;;;;6.85;3.95;;;;;;;-3.53;100.00;101189.97;4958545;29;20527;-90
2024/01/18 21:42:28;;;;;;;9.50;4.65;;;;;;;-3.53;100.00;101200.13;4958800;29;20098;-90
2024/01/18 21:45:00;;;;;;;8.50;4.32;;;;;;;-3.51;100.00;101207.00;4957780;29;20491;-90
2024/01/18 21:47:25;;;;;;;8.05;4.43;;;;;;;-3.61;100.00;101189.59;4958387;29;20024;-90
2024/01/18 21:49:50;;;;;;;7.78;4.47;;;;;;;-3.53;100.00;101213.66;4958499;29;20023;-90
2024/01/18 21:52:16;;;;;;;8.90;4.40;;;;;;;-3.53;100.00;101215.34;4958546;29;20086;-90
2024/01/18 21:54:42;;;;;;;7.78;4.30;;;;;;;-3.62;100.00;101201.44;4958418;29;20039;-90
2024/01/18 21:57:07;;;;;;;9.43;4.88;;;;;;;-3.58;100.00;101217.66;4957076;29;20035;-90
2024/01/18 21:59:32;;;;;;;8.52;4.40;;;;;;;-3.64;100.00;101215.72;4958670;29;20031;-90
2024/01/18 22:02:21;;;;;;;8.35;4.50;;;;;;;-3.63;100.00;101216.56;4955162;29;20027;-90
2024/01/18 22:05:00;;;;;;;9.77;4.57;;;;;;;-3.76;100.00;101202.44;4958493;29;20023;-90
2024/01/18 22:07:43;;;;;;;8.35;4.40;;;;;;;-3.89;100.00;101189.13;4958368;29;20371;-90
2024/01/18 22:10:17;;;;;;;7.85;4.15;;;;;;;-3.86;100.00;101198.56;4958331;29;20066;-90
2024/01/18 22:12:51;;;;;;;8.32;3.95;;;;;;;-3.91;100.00;101202.53;4958092;29;20086;-90
2024/01/18 22:15:37;;;;;;;6.75;3.90;;;;;;;-3.95;100.00;101203.19;4958431;29;20027;-90
2024/01/18 22:18:02;;;;;;;6.95;3.90;;;;;;;-3.84;100.00;101234.16;4957449;29;20051;-90
2024/01/18 22:20:34;;;;;;;7.28;3.70;;;;;;;-3.81;100.00;101241.91;4958645;29;20130;-91
2024/01/18 22:23:05;;;;;;;6.03;3.53;;;;;;;-4.04;100.00;101201.94;4958900;29;20023;-90
2024/01/18 22:25:46;;;;;;;6.75;3.47;;;;;;;-3.95;100.00;101226.00;4958357;29;20452;-90
2024/01/18 22:28:20;;;;;;;5.97;3.30;;;;;;;-4.03;100.00;101221.44;4958162;29;20516;-90
2024/01/18 22:31:07;;;;;;;4.82;2.85;;;;;;;-3.92;100.00;101248.97;4958129;28;20038;-90
2024/01/18 22:33:33;;;;;;;5.28;2.90;;;;;;;-3.90;100.00;101249.94;4959711;28;20361;-90
2024/01/18 22:36:14;;;;;;;4.25;2.75;;;;;;;-3.85;100.00;101256.09;4960777;29;20023;-90
2024/01/18 22:38:54;;;;;;;5.40;2.97;;;;;;;-3.89;100.00;101244.06;4961321;29;20078;-90
2024/01/18 22:41:36;;;;;;;5.70;2.63;;;;;;;-3.84;100.00;101252.75;4961730;29;20035;-90
2024/01/18 22:44:10;;;;;;;4.13;2.75;;;;;;;-3.80;100.00;101248.72;4964643;29;20035;-90
2024/01/18 22:46:44;;;;;;;4.22;2.63;;;;;;;-3.86;100.00;101239.13;4967510;29;20054;-91